Home > Products > Valid Products > TAF

000
FTUS42 KMLB 251500 AAA
TAFMCO
TAF AMD
KMCO 251502Z 2515/2612 34010KT P6SM FEW050
     FM260000 01006KT P6SM SKC=



000
FTUS42 KMLB 251100
TAFVRB
TAF
KVRB 251123Z 2512/2612 33009KT P6SM SCT050
     FM251500 01013KT P6SM SCT040
     FM260000 36006KT P6SM SKC=



000
FTUS42 KMLB 251100
TAFMCO
TAF
KMCO 251123Z 2512/2612 35010KT P6SM SCT050
     FM260000 01006KT P6SM SKC=



000
FTUS42 KMLB 251100
TAFMLB
TAF
KMLB 251123Z 2512/2612 34008KT P6SM SCT050
     FM251600 01010KT P6SM SCT050
     FM260000 35007KT P6SM SKC=



000
FTUS42 KMLB 251100
TAFSFB
TAF
KSFB 251123Z 2512/2612 34007KT P6SM SCT050
     FM251600 36010KT P6SM SCT035
     FM260000 01006KT P6SM SKC=



000
FTUS42 KMLB 251100
TAFDAB
TAF
KDAB 251123Z 2512/2612 32007KT P6SM SCT040 SCT060
     FM251600 01010KT P6SM SCT040
     FM260000 34003KT P6SM SKC=



000
FTUS42 KMLB 251100
TAFSFB
TAF
KSFB 251123Z 2512/2612 34007KT P6SM SCT050
     FM251600 36010KT P6SM SCT035
     FM260000 01006KT P6SM SKC=



000
FTUS42 KMLB 251100
TAFVRB
TAF
KVRB 251123Z 2512/2612 33009KT P6SM SCT050
     FM251500 01013KT P6SM SCT040
     FM260000 36006KT P6SM SKC=



000
FTUS42 KMLB 251100
TAFMLB
TAF
KMLB 251123Z 2512/2612 34008KT P6SM SCT050
     FM251600 01010KT P6SM SCT050
     FM260000 35007KT P6SM SKC=



000
FTUS42 KMLB 251100
TAFMCO
TAF
KMCO 251123Z 2512/2612 35010KT P6SM SCT050
     FM260000 01006KT P6SM SKC=



000
FTUS42 KMLB 251100
TAFDAB
TAF
KDAB 251123Z 2512/2612 32007KT P6SM SCT040 SCT060
     FM251600 01010KT P6SM SCT040
     FM260000 34003KT P6SM SKC=



000
FTUS42 KMLB 250800 AAA
TAFMCO
TAF AMD
KMCO 250859Z 2509/2606 35010KT P6SM SCT045
      TEMPO 2509/2512 BKN045
     FM260000 01006KT P6SM SKC=



000
FTUS42 KMLB 250500
TAFVRB
TAF
KVRB 250520Z 2506/2606 36006KT P6SM SCT045
      TEMPO 2506/2509 BKN045
     FM251500 01013KT P6SM SCT035
     FM260000 36006KT P6SM SKC=



000
FTUS42 KMLB 250500
TAFMLB
TAF
KMLB 250520Z 2506/2606 33006KT P6SM BKN050
     FM251500 36012KT P6SM SCT035
     FM260000 01007KT P6SM SKC=



000
FTUS42 KMLB 250500
TAFMCO
TAF
KMCO 250520Z 2506/2606 34006KT P6SM FEW045
     FM251600 36010KT P6SM SCT035
     FM260000 01006KT P6SM SKC=



000
FTUS42 KMLB 250500
TAFSFB
TAF
KSFB 250520Z 2506/2606 33006KT P6SM SCT045
     FM251600 36010KT P6SM SCT035
     FM260000 01006KT P6SM SKC=



000
FTUS42 KMLB 250500
TAFDAB
TAF
KDAB 250520Z 2506/2606 31004KT P6SM SCT045
      TEMPO 2506/2509 BKN045
     FM251500 35010KT P6SM SCT035
     FM260000 36003KT P6SM SKC=



000
FTUS42 KMLB 250200 AAA
TAFMCO
TAF AMD
KMCO 250257Z 2503/2524 35006KT P6SM SCT050
     FM251800 36010KT P6SM SCT035=



000
FTUS42 KMLB 242300
TAFMLB
TAF
KMLB 242320Z 2500/2524 03010KT P6SM BKN050
     FM250400 36006KT P6SM SCT040
     FM251700 01013KT P6SM SCT035=



000
FTUS42 KMLB 242300
TAFVRB
TAF
KVRB 242320Z 2500/2524 03010KT P6SM BKN050
     FM250400 36006KT P6SM SCT040
     FM251700 01013KT P6SM SCT035=



000
FTUS42 KMLB 242300
TAFMCO
TAF
KMCO 242320Z 2500/2524 05008KT P6SM SCT050
     FM250400 35005KT P6SM FEW050
     FM251800 36010KT P6SM SCT035=



000
FTUS42 KMLB 242300
TAFDAB
TAF
KDAB 242320Z 2500/2524 36005KT P6SM SCT040
     FM251700 01010KT P6SM SCT035=



000
FTUS42 KMLB 242300
TAFSFB
TAF
KSFB 242320Z 2500/2524 04007KT P6SM FEW050
     FM250400 35005KT P6SM FEW050
     FM251800 36010KT P6SM SCT035=



000
FTUS42 KMLB 242000 AAB
TAFMCO
TAF AMD
KMCO 242051Z 2421/2518 06011KT P6SM SCT050
     FM250400 01005KT P6SM FEW250=



000
FTUS42 KMLB 241800 AAA
TAFMCO
TAF AMD
KMCO 241823Z 2418/2518 07009KT P6SM SCT045
     FM250400 01005KT P6SM FEW250=



000
FTUS42 KMLB 241700
TAFDAB
TAF
KDAB 241736Z 2418/2518 01013KT P6SM SCT045 SCT140
      TEMPO 2418/2422 BKN040
     FM250000 01005KT P6SM FEW250=



000
FTUS42 KMLB 241700
TAFSFB
TAF
KSFB 241736Z 2418/2518 06012G16KT P6SM SCT045
     FM250000 01007KT P6SM FEW250=



000
FTUS42 KMLB 241700
TAFMLB
TAF
KMLB 241736Z 2418/2518 06014KT P6SM SCT045
      TEMPO 2418/2422 BKN040
     FM250400 02009KT P6SM SCT045=



000
FTUS42 KMLB 241700
TAFVRB
TAF
KVRB 241736Z 2418/2518 05014KT P6SM SCT040
      TEMPO 2418/2422 BKN040
     FM250400 02009KT P6SM SCT045 SCT250=



000
FTUS42 KMLB 241700
TAFMCO
TAF
KMCO 241736Z 2418/2518 05012G18KT P6SM SCT040
     FM250000 01008KT P6SM FEW250
     FM250400 34006KT P6SM FEW250=



000
FTUS42 KMLB 241500 AAA
TAFMLB
TAF AMD
KMLB 241506Z 2415/2512 07009KT P6SM SCT045
     FM241600 05014G20KT P6SM SCT035
     FM250000 02012KT P6SM SCT045=



000
FTUS42 KMLB 241500 AAA
TAFMCO
TAF AMD
KMCO 241505Z 2415/2512 02012KT P6SM SCT040
     FM250000 01008KT P6SM FEW250
     FM250400 34006KT P6SM FEW250=



000
FTUS42 KMLB 241100
TAFVRB
TAF
KVRB 241137Z 2412/2512 04009KT P6SM BKN040
     FM241400 05014G20KT P6SM SCT035
     FM250000 02012KT P6SM SCT045 SCT250=



000
FTUS42 KMLB 241100
TAFMLB
TAF
KMLB 241137Z 2412/2512 29004KT P6SM FEW040
     FM241400 05014G20KT P6SM SCT035
     FM250000 02012KT P6SM SCT045=



000
FTUS42 KMLB 241100
TAFMCO
TAF
KMCO 241137Z 2412/2512 36008KT P6SM FEW035 FEW150
     FM241400 04011KT P6SM FEW035 FEW250
     FM250000 01008KT P6SM FEW250=



000
FTUS42 KMLB 241100
TAFDAB
TAF
KDAB 241137Z 2412/2512 32005KT P6SM BKN040
     FM241400 04010KT P6SM FEW035 FEW250
     FM250000 01005KT P6SM FEW250=



000
FTUS42 KMLB 241100
TAFSFB
TAF
KSFB 241137Z 2412/2512 36007KT P6SM SCT040
     FM241400 04010KT P6SM FEW035 FEW250
     FM250000 01007KT P6SM FEW250=



000
FTUS42 KMLB 240800 AAA
TAFMCO
TAF AMD
KMCO 240858Z 2409/2506 35007KT P6SM FEW035
     FM241400 04011KT P6SM FEW035 FEW250
     FM242300 01008KT P6SM FEW250=



000
FTUS42 KMLB 240500
TAFMCO
TAF
KMCO 240520Z 2406/2506 01005KT P6SM FEW250
     FM241400 04011KT P6SM FEW035 FEW250
     FM242300 01008KT P6SM FEW250=



000
FTUS42 KMLB 240500
TAFDAB
TAF
KDAB 240520Z 2406/2506 VRB02KT P6SM FEW040 FEW050
     FM240800 34003KT P6SM FEW250
     FM241400 04010KT P6SM FEW035 FEW250
     FM250000 01005KT P6SM FEW250=



000
FTUS42 KMLB 240500
TAFVRB
TAF
KVRB 240520Z 2406/2506 07008KT P6SM FEW050 SCT250
     FM241400 05014G20KT P6SM SCT035
     FM250000 02012KT P6SM SCT045 SCT250=



000
FTUS42 KMLB 240500
TAFMLB
TAF
KMLB 240520Z 2406/2506 06008KT P6SM SCT045
      TEMPO 2406/2409 BKN045
     FM241400 05014G20KT P6SM SCT035
     FM250000 02012KT P6SM SCT045=



000
FTUS42 KMLB 240500
TAFSFB
TAF
KSFB 240520Z 2406/2506 35005KT P6SM FEW250
     FM241400 04010KT P6SM FEW035 FEW250
     FM242300 01007KT P6SM FEW250=



000
FTUS42 KMLB 240200 AAA
TAFMCO
TAF AMD
KMCO 240251Z 2403/2424 03007KT P6SM FEW250
     FM240600 01005KT P6SM FEW250
     FM241400 04010KT P6SM FEW035 FEW250=



000
FTUS42 KMLB 240200 AAA
TAFMCO
TAF AMD
KMCO 240251Z 2403/2424 03007KT P6SM FEW250
     FM240600 01005KT P6SM FEW250
     FM241400 04010KT P6SM FEW035 FEW250=



000
FTUS42 KMLB 232300
TAFVRB
TAF
KVRB 232323Z 2400/2424 04008KT P6SM FEW040 FEW250
     FM241400 05014G20KT P6SM SCT035=



000
FTUS42 KMLB 232300
TAFDAB
TAF
KDAB 232323Z 2400/2424 04007KT P6SM FEW050 FEW250
     FM240800 35004KT P6SM FEW250
     FM241400 04010KT P6SM FEW035 FEW250=



000
FTUS42 KMLB 232300
TAFMLB
TAF
KMLB 232323Z 2400/2424 04008KT P6SM FEW050 FEW250
     FM241400 05014G20KT P6SM SCT035=



000
FTUS42 KMLB 232300
TAFMCO
TAF
KMCO 232323Z 2400/2424 05009KT P6SM FEW250
     FM240600 01005KT P6SM FEW250
     FM241400 04010KT P6SM FEW035 FEW250=



000
FTUS42 KMLB 232300
TAFSFB
TAF
KSFB 232323Z 2400/2424 05009KT P6SM FEW250
     FM240600 01005KT P6SM FEW250
     FM241400 04010KT P6SM FEW035 FEW250=



000
FTUS42 KMLB 232000 AAA
TAFMCO
TAF AMD
KMCO 232050Z 2321/2418 05009KT P6SM FEW050 FEW250
     FM240400 01006KT P6SM SCT250
     FM241400 03010KT P6SM FEW035=



000
FTUS42 KMLB 231900 AAA
TAFDAB
TAF AMD
KDAB 231922Z 2319/2418 06010KT P6SM FEW045
     FM240400 36004KT P6SM FEW250
     FM241400 03009KT P6SM SCT035=



000
FTUS42 KMLB 231900 AAA
TAFDAB
TAF AMD
KDAB 231922Z 2319/2418 06010KT P6SM FEW045
     FM240400 36004KT P6SM FEW250
     FM241400 03009KT P6SM SCT035=



000
FTUS42 KMLB 231700
TAFMLB
TAF
KMLB 231729Z 2318/2418 04010KT P6SM FEW045
     FM240400 04009KT P6SM FEW030 SCT250
     FM241400 04012KT P6SM SCT025=



000
FTUS42 KMLB 231700
TAFMCO
TAF
KMCO 231729Z 2318/2418 01008KT P6SM FEW050 FEW250
     FM240400 01006KT P6SM SCT250
     FM241400 03010KT P6SM FEW035=



000
FTUS42 KMLB 231700
TAFVRB
TAF
KVRB 231729Z 2318/2418 06008KT P6SM SCT040
     FM240000 05009KT P6SM FEW025 BKN250
     FM241400 04013KT P6SM SCT025=



000
FTUS42 KMLB 231700
TAFDAB
TAF
KDAB 231729Z 2318/2418 02012KT P6SM FEW050
     FM240400 36004KT P6SM FEW250
     FM241400 03009KT P6SM SCT035=



000
FTUS42 KMLB 231700
TAFSFB
TAF
KSFB 231729Z 2318/2418 VRB06KT P6SM FEW250
     FM240400 02005KT P6SM FEW250
     FM241400 04008KT P6SM FEW035=



000
FTUS42 KMLB 231400 AAA
TAFMLB
TAF AMD
KMLB 231459Z 2315/2412 07010KT P6SM SCT040
     FM240000 04009KT P6SM FEW030 SCT250
     FM240600 03009KT P6SM FEW250=



000
FTUS42 KMLB 231400 AAA
TAFMLB
TAF AMD
KMLB 231459Z 2315/2412 07010KT P6SM SCT040
     FM240000 04009KT P6SM FEW030 SCT250
     FM240600 03009KT P6SM FEW250=



000
FTUS42 KMLB 231400 AAA
TAFMCO
TAF AMD
KMCO 231458Z 2315/2412 06010KT P6SM FEW035 FEW250
     FM240000 03006KT P6SM SCT250
     FM240600 36005KT P6SM SKC=



000
FTUS42 KMLB 231400 AAA
TAFMCO
TAF AMD
KMCO 231458Z 2315/2412 06010KT P6SM FEW035 FEW250
     FM240000 03006KT P6SM SCT250
     FM240600 36005KT P6SM SKC=



000
FTUS42 KMLB 231100
TAFDAB
TAF
KDAB 231132Z 2312/2412 30003KT P6SM FEW040 FEW060 SCT150
     FM231400 04010KT P6SM SCT250
     FM240000 03004KT P6SM FEW250
     FM240600 02003KT P6SM FEW250=



000
FTUS42 KMLB 231100
TAFMLB
TAF
KMLB 231132Z 2312/2412 05009KT P6SM SKC
     FM231400 04012KT P6SM FEW030 SCT250
     FM240000 04009KT P6SM FEW030 SCT250
     FM240600 03009KT P6SM FEW250=



000
FTUS42 KMLB 231100
TAFVRB
TAF
KVRB 231132Z 2312/2412 04010KT P6SM FEW030
     FM231500 04012KT P6SM SCT030 BKN250
     FM240000 05008KT P6SM SCT030 BKN200
     FM240600 04010KT P6SM FEW025 BKN250=



000
FTUS42 KMLB 231100
TAFMCO
TAF
KMCO 231132Z 2312/2412 35007KT P6SM SCT250
     FM231400 04011KT P6SM SCT250
     FM240000 03006KT P6SM SCT250
     FM240600 36005KT P6SM SKC=



000
FTUS42 KMLB 231100
TAFSFB
TAF
KSFB 231132Z 2312/2412 34006KT P6SM SKC
     FM231400 05010KT P6SM SCT250
     FM240000 02005KT P6SM FEW250
     FM240600 36004KT P6SM SKC=



000
FTUS42 KMLB 230900 AAA
TAFMCO
TAF AMD
KMCO 230902Z 2309/2406 01007KT P6SM SCT250
     FM231400 04011KT P6SM SCT250
     FM240000 03006KT P6SM FEW250=



000
FTUS42 KMLB 230500
TAFVRB
TAF
KVRB 230522Z 2306/2406 01007KT P6SM BKN250
     FM231500 04012KT P6SM SCT030 BKN250
     FM240000 05008KT P6SM SCT030 BKN100=



000
FTUS42 KMLB 230500
TAFMCO
TAF
KMCO 230522Z 2306/2406 01007KT P6SM SCT250
     FM231400 04010KT P6SM SCT250
     FM240000 03005KT P6SM FEW250=



000
FTUS42 KMLB 230500
TAFMLB
TAF
KMLB 230522Z 2306/2406 03010KT P6SM BKN250
     FM231400 04012KT P6SM FEW030 SCT250
     FM240000 04009KT P6SM FEW030 SCT250=



000
FTUS42 KMLB 230500
TAFSFB
TAF
KSFB 230522Z 2306/2406 01005KT P6SM SCT250
     FM231400 05010KT P6SM SCT250
     FM240000 02005KT P6SM FEW250=



000
FTUS42 KMLB 230500
TAFDAB
TAF
KDAB 230522Z 2306/2406 04008KT P6SM SCT250
     FM230900 02006KT P6SM SCT250
     FM231400 04011KT P6SM SCT250
     FM240000 02004KT P6SM FEW250=



000
FTUS42 KMLB 230200 AAA
TAFMCO
TAF AMD
KMCO 230257Z 2303/2324 03009KT P6SM SCT250
     FM230600 01006KT P6SM SCT250
     FM231400 04010KT P6SM SCT250=



000
FTUS42 KMLB 222300
TAFMLB
TAF
KMLB 222325Z 2300/2324 02012KT P6SM SCT250
     FM230300 02007KT P6SM SCT250
     FM231400 04012KT P6SM SCT020 BKN250=



000
FTUS42 KMLB 222300
TAFDAB
TAF
KDAB 222325Z 2300/2324 02010KT P6SM FEW250
     FM230300 36005KT P6SM FEW250
     FM231400 03012KT P6SM FEW025 FEW250=



000
FTUS42 KMLB 222300
TAFVRB
TAF
KVRB 222325Z 2300/2324 01006KT P6SM BKN250
     FM230300 36005KT P6SM BKN250
     FM231500 04012KT P6SM SCT020 BKN250=



000
FTUS42 KMLB 222300
TAFSFB
TAF
KSFB 222325Z 2300/2324 04009KT P6SM SCT250
     FM230300 01006KT P6SM SCT250
     FM231400 04010KT P6SM SCT250=



000
FTUS42 KMLB 222300
TAFMCO
TAF
KMCO 222325Z 2300/2324 04009KT P6SM SCT250
     FM230300 01006KT P6SM SCT250
     FM231400 04010KT P6SM SCT250=



000
FTUS42 KMLB 222100 AAA
TAFMCO
TAF AMD
KMCO 222101Z 2221/2318 02008KT P6SM SCT250
     FM230400 36006KT P6SM SCT250
     FM231400 04010KT P6SM SCT250=



000
FTUS42 KMLB 221700
TAFDAB
TAF
KDAB 221720Z 2218/2318 04009KT P6SM FEW040 FEW250
     FM230000 01005KT P6SM SCT250
     FM230600 35004KT P6SM SCT250
     FM231400 35010KT P6SM FEW020 SCT250=



000
FTUS42 KMLB 221700
TAFSFB
TAF
KSFB 221720Z 2218/2318 34007KT P6SM SCT250
     FM222100 02009KT P6SM SCT250
     FM230100 02005KT P6SM SCT250
     FM230600 35005KT P6SM SKC
     FM231400 03009KT P6SM SCT250=



000
FTUS42 KMLB 221700
TAFMCO
TAF
KMCO 221720Z 2218/2318 32004KT P6SM SCT300
     FM222100 03009KT P6SM SCT250
     FM230100 02007KT P6SM SCT250
     FM230600 36006KT P6SM SCT250
     FM231400 04010KT P6SM SCT250=



000
FTUS42 KMLB 221700
TAFMLB
TAF
KMLB 221720Z 2218/2318 36007KT P6SM SCT250
     FM230000 01008KT P6SM SCT250
     FM230600 36008KT P6SM SCT250
     FM231300 05011KT P6SM SCT020 BKN250=



000
FTUS42 KMLB 221700
TAFVRB
TAF
KVRB 221720Z 2218/2318 36007KT P6SM SCT024 BKN250
     FM230000 01007KT P6SM FEW040 SCT120 BKN250
     FM230600 36008KT P6SM BKN250
     FM231300 04012KT P6SM SCT020 BKN250=



000
FTUS42 KMLB 221700
TAFSFB
TAF
KSFB 221720Z 2218/2318 34007KT P6SM SCT250
     FM222100 02009KT P6SM SCT250
     FM230100 02005KT P6SM SCT250
     FM230600 35005KT P6SM SKC
     FM231400 03009KT P6SM SCT250=



000
FTUS42 KMLB 221700
TAFMCO
TAF
KMCO 221720Z 2218/2318 32004KT P6SM SCT300
     FM222100 03009KT P6SM SCT250
     FM230100 02007KT P6SM SCT250
     FM230600 36006KT P6SM SCT250
     FM231400 04010KT P6SM SCT250=



000
FTUS42 KMLB 221700
TAFMLB
TAF
KMLB 221720Z 2218/2318 36007KT P6SM SCT250
     FM230000 01008KT P6SM SCT250
     FM230600 36008KT P6SM SCT250
     FM231300 05011KT P6SM SCT020 BKN250=



000
FTUS42 KMLB 221700
TAFVRB
TAF
KVRB 221720Z 2218/2318 36007KT P6SM SCT024 BKN250
     FM230000 01007KT P6SM FEW040 SCT120 BKN250
     FM230600 36008KT P6SM BKN250
     FM231300 04012KT P6SM SCT020 BKN250=



000
FTUS42 KMLB 221700
TAFDAB
TAF
KDAB 221720Z 2218/2318 04009KT P6SM FEW040 FEW250
     FM230000 01005KT P6SM SCT250
     FM230600 35004KT P6SM SCT250
     FM231400 35010KT P6SM FEW020 SCT250=



    US Dept of Commerce
    National Oceanic and Atmospheric Administration
    National Weather Service
    1325 East West Highway
    Silver Spring, MD 20910
    Page Author: NWS Internet Services Team
Disclaimer
Information Quality
Credits
Glossary
Privacy Policy
Freedom of Information Act (FOIA)
About Us
Career Opportunities